Weather observations for the past three days for
Newnan, Newnan Coweta County Airport
Metric (Imperial)
Date Time (edt) Wind (kph) Vis. (km) Weather Sky Cond. Temperature (ºC) Relative Humidity Wind Chill (°C) Heat Index (°C) Pressure Precipitation (cm)
Air Dwpt 6 hour altimeter (cm) sea level (mb) 1 hr 3 hr 6 hr
Max. Min.
03 14:15 W 7 16.09 Fair CLR 19.3 1 30% 76.53 0.0
03 13:55 NW 9 16.09 Fair CLR 18.9 0.6 18.9 10.1 29% 76.53 0.0
03 13:35 NW 6 16.09 Fair CLR 18.7 1.2 31% 76.56 0.0
03 13:15 NW 11 16.09 Fair CLR 17.8 0.6 32% 76.56 0.0
03 12:55 W 9 16.09 Fair CLR 18.1 1.5 33% 76.58 0.0
03 12:35 N 7 16.09 Fair CLR 17.1 1.9 36% 76.58 0.0
03 12:15 N 19 16.09 Fair CLR 17 1.5 35% 76.58 0.0
03 11:55 NW 11 16.09 Fair CLR 16.8 0.8 34% 76.61 0.0
03 11:35 NW 6 16.09 Fair CLR 16.2 2.7 41% 76.63 0.0
03 11:15 SW 9 16.09 Fair CLR 15.8 1.1 37% 76.63 0.0
03 10:35 W 9 16.09 Fair CLR 15 3.8 47% 76.61 0.0
03 10:15 N 7 16.09 Fair CLR 14.1 4.2 52% 76.61 0.0
03 09:55 N 15 16.09 Fair CLR 13.5 4.2 54% 76.58 0.0
03 09:35 NW 9 16.09 Fair CLR 12.9 4.5 57% 76.58 0.0
03 09:15 N 15 16.09 Fair CLR 12.2 4.8 61% 76.58 0.0
03 08:55 N 15 16.09 Fair CLR 12 4.7 61% 76.58 0.0
03 08:35 N 15 16.09 Fair CLR 11.4 4.7 64% 76.56 0.0
03 08:15 N 9 16.09 Fair CLR 10.7 4.5 66% 76.56 0.0
03 07:55 N 11 16.09 Fair CLR 10 4.6 11.5 6.1 69% 9 76.53 0.0
03 07:35 NW 6 16.09 Fair CLR 9 4.2 72% 76.53 0.0
03 07:15 NW 7 16.09 Fair CLR 7.9 4.2 78% 7 76.5 0.0
03 06:55 Calm 16.09 Fair CLR 6.2 4.6 90% 76.5 0.0
03 06:35 Calm 16.09 Fair CLR 6.4 4.5 88% 76.5 0.0
03 06:15 Calm 16.09 Fair CLR 7 4.2 83% 76.48 0.0
03 05:55 Calm 16.09 Fair CLR 7.5 3.8 78% 76.45 0.0
03 05:35 Calm 16.09 Fair CLR 8 3.7 75% 76.45 0.0
03 05:15 Calm 16.09 Fair CLR 8.1 4 76% 76.45 0.0
03 04:55 Calm 16.09 Fair CLR 8 4.5 79% 76.45 0.0
03 04:35 NW 6 16.09 Fair CLR 9.3 3 65% 76.45 0.0
03 04:15 N 6 16.09 Fair CLR 9.7 2.7 62% 76.43 0.0
03 03:55 N 11 16.09 Partly Cloudy SCT075 9.5 2.7 63% 8 76.43 0.0
03 03:35 N 9 16.09 Fair CLR 10 2.5 60% 9 76.4 0.0
03 03:15 N 9 16.09 Fair CLR 10.3 2.3 58% 76.4 0.0
03 02:55 N 11 16.09 Fair CLR 10.7 2.1 56% 76.38 0.0
03 02:35 N 11 16.09 Fair CLR 11.1 2 54% 76.38 0.0
03 02:15 N 15 16.09 Fair CLR 11.3 1.9 53% 76.35 0.0
03 01:55 N 11 16.09 Fair CLR 11.5 1.8 17.6 10.3 52% 76.35 0.0
03 01:35 N 7 16.09 Fair CLR 11.7 1.8 51% 76.38 0.0
03 01:15 Calm 16.09 Fair CLR 11.8 1.7 50% 76.38 0.0
03 00:55 NW 7 16.09 Fair CLR 12 1.6 49% 76.35 0.0
03 00:35 NW 6 16.09 Fair CLR 10.9 2.6 57% 76.35 0.0
03 00:15 Calm 16.09 Fair CLR 10.5 4 64% 76.33 0.0
02 23:55 Calm 16.09 Fair CLR 12.5 1.8 48% 76.33 0.0
02 23:35 NW 6 16.09 Fair CLR 13.5 0.8 42% 76.33 0.0
02 23:15 NW 6 16.09 Fair CLR 13.2 1 44% 76.33 0.0
02 22:55 NW 6 16.09 Fair CLR 13.2 1.3 45% 76.3 0.0
02 22:35 Calm 16.09 Fair CLR 13.6 1.7 45% 76.3 0.0
02 22:15 NW 7 16.09 Fair CLR 14.1 1 41% 76.28 0.0
02 21:55 NW 7 16.09 Fair CLR 14.3 1.2 41% 76.25 0.0
02 21:35 NW 6 16.09 Fair CLR 14.6 1.5 41% 76.23 0.0
02 21:15 NW 7 16.09 Fair CLR 15.1 1.3 39% 76.2 0.0
02 20:55 NW 9 16.09 Fair CLR 15.6 1.3 38% 76.2 0.0
02 20:35 NW 7 16.09 Partly Cloudy SCT075 16.3 1.3 36% 76.15 0.0
02 20:15 NW 6 16.09 Partly Cloudy SCT075 17.1 0.6 33% 76.12 0.0
02 19:55 N 13 16.09 Fair CLR 17.6 0.2 20.8 17.6 31% 76.1 0.0
02 19:35 NW 20 16.09 Fair CLR 18.3 0 29% 76.07 0.0
02 19:15 NW 15 G 31 16.09 Fair CLR 18.5 -0.6 28% 76.05 0.0
02 18:55 NW 20 G 31 16.09 Fair CLR 19 -1 26% 76.05 0.0
02 18:35 N 30 G 37 16.09 Fair CLR 19.5 -1.6 24% 76.05 0.0
02 18:15 NW 26 G 31 16.09 Fair CLR 19.5 -1.8 24% 76.05 0.0
02 17:55 NW 30 G 41 16.09 Fair CLR 19.5 -1.4 24% 76.02 0.0
02 17:35 NW 17 G 30 16.09 Fair CLR 19.7 -1.4 24% 76.02 0.0
02 17:15 NW 20 G 33 16.09 Fair CLR 20.1 -0.2 26% 76 0.0
02 16:55 NW 28 G 35 16.09 Fair CLR 19.8 -0.1 26% 76 0.0
02 16:35 NW 22 G 39 16.09 Fair CLR 20 -0.1 26% 76 0.0
02 16:15 N 26 G 37 16.09 Fair CLR 20.2 0.7 27% 76 0.0
02 15:55 NW 24 G 30 16.09 Fair CLR 20.4 0.3 26% 75.97 0.0
02 15:35 NW 22 G 30 16.09 Fair CLR 20.3 2.1 30% 76 0.0
02 15:15 N 13 G 28 16.09 Fair CLR 20.6 2.3 30% 76 0.0
02 14:55 NW 11 G 28 16.09 Partly Cloudy SCT060 20.2 4 35% 75.97 0.0
02 14:35 NW 13 G 26 16.09 Fair CLR 20.2 4.1 35% 76 0.0
02 14:15 NW 19 16.09 Partly Cloudy SCT049 20.2 4.4 36% 76 0.0
02 13:55 N 20 G 28 16.09 Mostly Cloudy BKN049 20.1 6.1 20.1 11.6 40% 76 0.0 0.03
02 13:35 N 17 G 28 16.09 Fair CLR 19.5 6.3 42% 76 0.0
02 13:15 NW 19 G 26 16.09 Fair CLR 19.1 6 43% 76 0.0
02 12:55 N 19 G 28 16.09 Fair CLR 19.5 5.7 41% 76.02 0.0
02 12:35 N 17 G 26 16.09 Fair CLR 18.5 6.1 44% 76.02 0.0
02 12:15 NW 17 16.09 Partly Cloudy SCT120 17.6 6.7 49% 76.05 0.0
02 11:55 NW 17 16.09 Mostly Cloudy BKN095 17.1 7.4 53% 76.02 0.0
02 11:35 NW 17 16.09 Overcast OVC095 16.2 6.9 54% 76.05 0.0
02 11:15 N 15 16.09 Overcast OVC095 15.3 7.5 60% 76.05 0.0
02 10:55 N 22 16.09 Overcast OVC095 14.6 7.3 62% 76.02 0.0 0.03
02 10:35 N 15 16.09 Overcast OVC095 13.7 8 69% 76 0.0
02 10:15 N 13 16.09 Overcast OVC095 13.1 7.5 69% 76 0.0
02 09:55 N 11 16.09 Overcast OVC095 12.7 8.1 74% 76 0.0
02 09:35 N 13 16.09 Overcast OVC085 12.2 7.6 74% 76 0.0
02 09:15 N 7 16.09 Overcast OVC085 12 8.7 80% 76 0.0
02 08:55 N 6 16.09 Overcast OVC095 11.7 8.8 83% 75.97 0.0 0.03
02 08:35 Calm 16.09 Light Drizzle SCT075 OVC095 11.7 9 84% 76 0.0 0.03
02 08:15 W 6 16.09 Light Rain SCT075 OVC085 11.8 10.6 92% 76.07 0.0 0.03
02 07:55 Calm 16.09 Light Rain SCT055 SCT070 OVC095 11.9 10 13.7 11.9 88% 75.95 0.0 0.18
02 07:35 Calm 16.09 Light Rain SCT080 OVC095 12.1 11 93% 75.97 0.0
02 07:15 N 9 16.09 Light Rain OVC095 12.3 10.2 87% 75.92 0.0
02 06:55 Calm 16.09 Light Rain OVC095 12.6 11.1 91% 75.92 0.0 0.05
02 06:35 Calm 16.09 Rain OVC090 12.8 12.3 97% 76 0.0 0.03
02 06:15 Calm 16.09 Overcast OVC090 13 12.3 96% 76.02 0.0
02 05:55 Calm 16.09 Mostly Cloudy BKN100 BKN110 13 12 94% 75.95 0.0
02 05:35 Calm 16.09 Mostly Cloudy BKN100 13 11.8 93% 75.9 0.0
02 05:15 Calm 16.09 Light Rain OVC090 13.2 12.1 93% 75.92 0.0
02 04:55 NW 7 16.09 Overcast OVC090 13.1 12.3 95% 75.92 0.0 0.03 0.13
02 04:35 Calm 16.09 Light Rain OVC090 13.4 12.9 97% 75.92 0.0 0.03
02 04:15 W 6 16.09 Light Drizzle OVC100 13.5 13 97% 75.95 0.0 0.03
02 03:55 Calm 16.09 Drizzle OVC100 13.5 13 97% 75.95 0.0 0.05
02 03:35 Calm 11.27 Light Rain OVC090 13.6 13.1 97% 75.95 0.0 0.05
02 03:15 W 6 11.27 Drizzle OVC100 13.6 13.1 97% 75.97 0.0
02 02:55 Calm 16.09 Rain OVC090 13.7 13.2 97% 75.97 0.0 0.05
02 02:35 Calm 11.27 Light Rain OVC100 13.6 13.1 97% 76 0.0 0.03
02 02:15 Calm 16.09 Rain SCT090 OVC110 13.6 13.1 97% 76 0.0
02 01:55 Calm 16.09 Light Drizzle OVC110 13.7 13.2 16.1 13.7 97% 76.02 0.0
02 01:35 Calm 16.09 Drizzle OVC100 13.8 13.3 97% 76.02 0.0
02 01:15 W 6 16.09 Rain OVC090 14 13.5 97% 76.02 0.0
02 00:55 Calm 16.09 Light Drizzle BKN090 OVC100 14 13.4 96% 76.02 0.0
02 00:35 Calm 16.09 Overcast OVC090 14 13.4 96% 76.02 0.0
02 00:15 Calm 16.09 Overcast BKN090 OVC120 14 13.4 96% 76.02 0.0
01 23:55 Calm 16.09 Light Rain BKN090 BKN120 14.2 13.5 96% 76.02 0.0
01 23:35 Calm 16.09 Overcast SCT070 BKN090 OVC120 14.3 13.5 95% 76.05 0.0
01 23:15 Calm 16.09 Light Drizzle OVC110 14.5 13.3 93% 76.07 0.0
01 22:55 W 6 16.09 Mostly Cloudy SCT085 BKN110 14.7 13.1 90% 76.07 0.0
01 22:35 Calm 16.09 Light Rain SCT085 BKN120 14.9 13.2 90% 76.07 0.0
01 22:15 Calm 16.09 Light Rain SCT070 BKN095 OVC120 15 13 88% 76.07 0.0
01 21:55 Calm 16.09 Overcast OVC095 15.1 12.7 86% 76.07 0.0
01 21:35 Calm 16.09 Overcast OVC095 15.4 12.5 83% 76.05 0.0
01 21:15 Calm 16.09 Overcast OVC095 15.6 12.1 80% 76.05 0.0
01 20:55 NW 6 16.09 Overcast BKN095 OVC110 16 11.8 76% 76.02 0.0
01 20:35 Calm 16.09 Overcast OVC120 16.1 11.6 75% 75.97 0.0
01 20:15 Calm 16.09 Overcast OVC120 16 12.3 79% 76 0.0
01 19:55 Calm 16.09 Overcast OVC110 16 12.6 18 16 80% 75.97 0.0
01 19:35 Calm 16.09 Overcast SCT080 OVC110 16.5 12 75% 75.97 0.0
01 19:15 Calm 16.09 Overcast SCT090 OVC110 16.6 11.9 74% 75.97 0.0
01 18:55 Calm 16.09 Mostly Cloudy BKN110 16.9 11.7 72% 75.97 0.0
01 18:35 Calm 16.09 Partly Cloudy SCT100 SCT120 17 11.9 72% 75.97 0.0
01 18:15 Calm 16.09 Partly Cloudy SCT100 SCT120 17.6 10.7 64% 75.97 0.0
01 17:55 NE 6 16.09 Partly Cloudy SCT100 17.8 11.1 65% 75.92 0.0
01 17:35 Calm 16.09 Overcast OVC100 17.3 11.3 68% 75.97 0.0
01 17:15 Calm 16.09 Overcast OVC100 17.2 11 67% 76 0.0
01 16:55 Calm 16.09 Overcast OVC100 17.3 11.1 67% 76 0.0
01 16:35 W 7 16.09 Overcast OVC090 17 10.8 67% 76.02 0.0
01 16:15 NW 9 16.09 Overcast OVC090 16.7 10.6 67% 76.05 0.0
01 15:55 NW 9 16.09 Overcast OVC090 16.7 10.4 67% 76.07 0.0
01 15:35 Calm 16.09 Overcast OVC090 17 10.3 65% 76.07 0.0
01 15:15 Calm 16.09 Overcast OVC090 17.1 10 63% 76.07 0.0
01 14:55 Calm 16.09 Overcast OVC090 17.1 10.1 64% 76.07 0.0
01 14:35 Calm 16.09 Overcast OVC100 17.3 9.7 61% 76.07 0.0
01 13:55 Calm 16.09 Overcast OVC100 17.6 8.3 18.1 13.1 55% 76.1 0.0
01 13:35 N 6 16.09 Overcast OVC100 17.5 9.2 58% 76.1 0.0
01 13:15 Calm 16.09 Overcast OVC100 17.6 7.5 52% 76.12 0.0
01 12:55 Calm 16.09 Overcast OVC110 17.5 8.3 55% 76.12 0.0
01 12:35 Calm 16.09 Overcast OVC110 17.1 7.9 55% 76.12 0.0
01 12:15 Calm 16.09 Overcast OVC110 17 7.8 55% 76.12 0.0
01 11:55 Calm 16.09 Overcast OVC120 16.8 8.2 57% 76.1 0.0
01 11:35 Calm 16.09 Overcast OVC120 17 6.5 50% 76.1 0.0
01 11:15 N 6 16.09 Mostly Cloudy BKN120 16.4 8.7 61% 76.1 0.0
01 10:55 Calm 16.09 Fair CLR 15.9 8.7 63% 76.1 0.0
01 10:35 NE 6 16.09 Partly Cloudy SCT120 15.5 8.9 65% 76.1 0.0
01 10:15 Calm 16.09 Fair CLR 15.1 8.6 65% 76.07 0.0
01 09:55 Calm 16.09 Fair CLR 14.6 8.2 66% 76.07 0.0
01 09:35 Calm 16.09 Partly Cloudy SCT120 14.7 8.4 66% 76.1 0.0
01 09:15 N 7 16.09 Mostly Cloudy BKN120 14.2 7.7 65% 76.1 0.0
01 08:55 N 6 16.09 Partly Cloudy SCT095 SCT120 14 7.9 67% 76.07 0.0
01 08:35 N 6 16.09 Mostly Cloudy SCT095 BKN120 13.8 8.1 69% 76.05 0.0
01 08:15 NW 6 16.09 Overcast SCT095 OVC120 13.5 8.1 70% 76.07 0.0
01 07:55 Calm 16.09 Overcast BKN095 OVC110 13.1 8.8 15.1 12.5 75% 76.05 0.0
01 07:35 NW 6 16.09 Overcast OVC095 13.2 8.1 71% 76.05 0.0
01 07:15 Calm 16.09 Overcast OVC095 13 8.7 75% 76 0.0
01 06:55 Calm 16.09 Overcast OVC095 12.9 9 77% 76 0.0
01 06:35 Calm 16.09 Light Drizzle SCT060 OVC095 12.6 9.6 82% 76 0.0
01 06:15 Calm 16.09 Overcast SCT060 SCT070 OVC095 12.5 9.6 83% 75.97 0.0
01 05:55 Calm 16.09 Light Rain SCT060 SCT070 OVC095 13.3 8 71% 75.97 0.0
01 05:35 W 6 16.09 Overcast BKN080 OVC095 13.7 7.2 65% 76 0.0
01 05:15 Calm 16.09 Overcast SCT065 SCT080 OVC095 14 6.6 61% 76 0.0
01 04:55 Calm 16.09 Overcast BKN070 OVC095 14.5 6 57% 76 0.0
01 04:35 N 6 16.09 Overcast SCT070 SCT095 OVC110 14.5 5.7 56% 75.95 0.0
01 04:15 N 9 16.09 Overcast SCT090 OVC110 14.5 6 57% 75.95 0.0
01 03:55 N 11 16.09 Overcast BKN100 OVC120 14.6 5.7 55% 75.97 0.0
01 03:35 N 13 16.09 Mostly Cloudy BKN120 14.7 5.8 55% 76 0.0
01 03:15 N 11 16.09 Partly Cloudy SCT120 14.8 5.7 55% 75.97 0.0
01 02:55 N 13 16.09 Partly Cloudy SCT120 15 5.6 54% 75.95 0.0
01 02:35 N 11 16.09 Fair CLR 15.1 5.7 54% 75.97 0.0
01 02:15 N 13 16.09 Fair CLR 15.1 5.9 54% 76 0.0
01 01:55 N 9 16.09 Fair CLR 15 6 18.9 15 55% 75.97 0.0
01 01:35 N 11 16.09 Fair CLR 15.2 6 54% 76 0.0
01 01:15 N 7 16.09 Fair CLR 15.2 6.5 56% 76 0.0
01 00:55 N 6 16.09 Fair CLR 15.1 7 59% 76.02 0.0
01 00:35 N 7 16.09 Fair CLR 15.1 7 59% 76.02 0.0
01 00:15 N 7 16.09 Fair CLR 15 7.1 59% 76 0.0
30 23:55 N 7 16.09 Fair CLR 15.1 7 59% 76 0.0
30 23:35 N 9 16.09 Fair CLR 15 7.1 59% 76.02 0.0
30 23:15 N 11 16.09 Fair CLR 15.2 7.4 60% 76.02 0.0
30 22:55 N 9 16.09 Fair CLR 15.4 7.7 60% 76.02 0.0
30 22:35 N 11 16.09 Fair CLR 15.8 7.9 60% 76.02 0.0
30 22:15 N 11 16.09 Fair CLR 16.1 8.2 60% 76.02 0.0
30 21:55 N 7 16.09 Fair CLR 16.3 8.7 61% 76.02 0.0
30 21:35 N 9 16.09 Fair CLR 16.6 8.5 59% 76 0.0
30 21:15 N 7 16.09 Fair CLR 17 8.2 56% 75.97 0.0
30 20:55 N 9 16.09 Fair CLR 17.6 7.8 53% 75.97 0.0
30 20:35 N 9 16.09 Fair CLR 17.8 7.6 51% 75.97 0.0
30 20:15 N 13 16.09 Fair CLR 18.5 7.1 48% 75.97 0.0
30 19:35 N 19 16.09 Fair CLR 19.6 7.5 46% 75.92 0.0
30 19:15 N 15 16.09 Fair CLR 20.3 8.1 46% 75.9 0.0
30 18:55 N 9 G 17 16.09 Fair CLR 20.8 7.4 42% 75.9 0.0
30 18:35 N 19 16.09 Fair CLR 21.3 6.5 38% 75.9 0.0
30 18:15 NW 19 16.09 Fair CLR 22 7.5 39% 75.87 0.0
30 17:55 N 13 16.09 Fair CLR 22.3 7.1 38% 75.87 0.0
30 17:35 NW 13 16.09 Fair CLR 22.1 6.8 37% 75.84 0.0
30 17:15 N 9 16.09 Fair CLR 21.9 8.2 42% 75.87 0.0
30 16:55 N 15 16.09 Fair CLR 21.8 7.6 40% 75.87 0.0
30 16:35 N 20 G 26 16.09 Fair CLR 22.1 8.3 41% 75.92 0.0
30 16:15 NW 15 16.09 Fair CLR 21.8 9.2 45% 75.92 0.0
30 15:55 N 19 16.09 Fair CLR 21.6 9 45% 75.92 0.0
30 15:35 NW 13 16.09 Fair CLR 21.3 9.7 48% 75.92 0.0
30 15:15 NW 15 16.09 Fair CLR 21.6 9.5 46% 75.92 0.0
30 14:55 N 17 16.09 Fair CLR 21.8 9.9 47% 75.92 0.0
Date Time (edt) Wind (kph) Vis. (km) Weather Sky Cond. Air Dwpt Max. Min. Relative Humidity Wind Chill (°C) Heat Index (°C) altimeter (cm) sea level (mb) 1 hr 3 hr 6 hr
6 hour
Temperature (ºC) Pressure Precipitation (cm)